• Join FlightAware (Why Join?)
  • Login
  • US Flag 
02:19AM EDT


 

Airport Tracker/Info


-or-


 

Live Flight TrackerFlight Track Log ✈ TAM8077 ✈ 20-Jul-2013 ✈ KMIA - SBMN / PLL

Flight Track Log - Related Links

Times and Time Zones

All times are in EDT time to prevent confusion due to time zone crossing. See the TAM8077 flight status page for this flight to view local times or setup timezone preferences in your user account.

Time Position Orientation Groundspeed Altitude Reporting Facility
EDT Latitude Longitude Course Direction KTS MPH feet Rate Location/Type
08:12AM 25.7890 -80.2730 76° East  Level FlightAware
08:13AM 25.7890 -80.2740 270° West 24 28 60 Level FlightAware
08:13AM 25.7900 -80.2750 318° Northwest 26 30 60 Level FlightAware
08:14AM 25.7900 -80.2760 270° West 32 37 60 Level FlightAware
08:14AM 25.7890 -80.2800 254° West 32 37 60 Level FlightAware
08:14AM 25.7890 -80.2790 90° East 26 30 60 Level FlightAware
08:15AM 25.7910 -80.2820 307° West 34 39 60 Level FlightAware
08:16AM 25.7910 -80.2830 270° West 34 39 60 Level FlightAware
08:16AM 25.7920 -80.2840 318° Northwest 21 24 120 Level FlightAware
08:16AM 25.7920 -80.2850 270° West 18 21 120 Level FlightAware
08:16AM 25.7930 -80.2850 360° North 30 35 120 Level FlightAware
08:17AM 25.7940 -80.2870 299° West 19 22 120 Level FlightAware
08:17AM 25.7950 -80.2900 290° West 21 24 120 Level FlightAware
08:18AM 25.7960 -80.2920 299° West 22 25 120 Level FlightAware
08:18AM 25.7970 -80.2940 299° West 20 23 180 Level FlightAware
08:18AM 25.7980 -80.2960 299° West 18 21 180 Level FlightAware
08:19AM 25.7990 -80.2970 318° Northwest 17 20 180 Level FlightAware
08:19AM 25.8000 -80.2990 299° West 18 21 180 Level FlightAware
08:20AM 25.8000 -80.3010 270° West 26 30 240 Level FlightAware
08:20AM 25.8010 -80.3010 360° North 20 23 300 Level FlightAware
08:21AM 25.8010 -80.2990 90° East 58 67 360 Level FlightAware
08:22AM 25.8020 -80.2630 88° East 178 205 800 1,920 Climbing FlightAware
08:23AM 25.7990 -80.2350 97° East 177 204 2,200 2,580 Climbing FlightAware
08:23AM 25.7890 -80.2120 116° Southeast 183 211 3,300 1,800 Climbing FlightAware
08:23AM 25.7790 -80.1910 118° Southeast 218 251 3,800 1,560 Climbing FlightAware
08:24AM 25.7650 -80.1610 117° Southeast 244 281 4,700 2,160 Climbing FlightAware
08:24AM 25.7570 -80.1420 115° Southeast 253 291 5,400 2,640 Climbing FlightAware
08:24AM 25.7470 -80.1180 115° Southeast 267 307 6,300 2,700 Climbing FlightAware
08:25AM 25.7310 -80.0820 116° Southeast 276 318 7,600 2,760 Climbing FlightAware
08:25AM 25.7200 -80.0430 107° East 286 329 8,900 2,520 Climbing FlightAware
08:26AM 25.7140 -80.0150 103° East 291 335 9,900 1,740 Climbing FlightAware
08:27AM 25.6990 -79.9500 104° East 334 384 11,000 1,440 Climbing FlightAware
08:27AM 25.6850 -79.8840 103° East 375 432 12,000 2,400 Climbing FlightAware
08:28AM 25.6620 -79.7740 103° East 395 455 14,500 3,060 Climbing FlightAware
08:29AM 25.6450 -79.6940 103° East 407 468 16,300 2,580 Climbing FlightAware
08:29AM 25.6260 -79.6090 104° East 419 482 18,000 2,400 Climbing FlightAware
08:30AM 25.6070 -79.5200 103° East 427 491 19,700 2,280 Climbing FlightAware
08:31AM 25.5890 -79.4330 103° East 438 504 21,200 1,800 Climbing FlightAware
08:31AM 25.5740 -79.3670 104° East 444 511 22,200 1,680 Climbing FlightAware
08:32AM 25.5520 -79.2640 103° East 454 522 23,700 1,860 Climbing FlightAware
08:33AM 25.5300 -79.1720 105° East 465 535 24,900 1,920 Climbing FlightAware
08:34AM 25.4970 -79.0490 107° East 478 550 26,400 1,920 Climbing FlightAware
08:34AM 25.4440 -78.9690 126° Southeast 482 555 27,600 2,040 Climbing FlightAware
08:35AM 25.3780 -78.8860 131° Southeast 477 549 29,300 2,160 Climbing FlightAware
08:36AM 25.3210 -78.8150 132° Southeast 470 541 30,700 1,800 Climbing FlightAware
08:36AM 25.2620 -78.7420 132° Southeast 470 541 31,800 1,500 Climbing FlightAware
08:37AM 25.1940 -78.6570 131° Southeast 468 539 33,000 720 Climbing FlightAware
08:38AM 25.1260 -78.5730 132° Southeast 472 543 33,000  Level FlightAware
08:39AM 25.0690 -78.5000 131° Southeast 472 543 33,000  Level FlightAware
08:39AM 25.0270 -78.4460 131° Southeast 472 543 33,000  Level FlightAware
08:40AM 24.9710 -78.3750 131° Southeast 472 543 33,000  Level FlightAware
08:41AM 24.9110 -78.2990 131° Southeast 472 543 33,000  Level FlightAware
08:42AM 24.8380 -78.2070 131° Southeast 472 543 33,000  Level FlightAware
08:43AM 24.7820 -78.1360 131° Southeast 472 543 33,000  Level FlightAware
08:43AM 24.7380 -78.0800 131° Southeast 472 543 33,000  Level FlightAware
08:44AM 24.6790 -78.0060 131° Southeast 472 543 33,000  Level FlightAware
08:45AM 24.6340 -77.9490 131° Southeast 472 543 33,000  Level FlightAware
08:46AM 24.5750 -77.8740 131° Southeast 472 543 33,000  Level FlightAware
08:46AM 24.5270 -77.8130 131° Southeast 472 543 33,000  Level FlightAware
08:47AM 24.4700 -77.7410 131° Southeast 472 543 33,000  Level FlightAware
08:48AM 23.9981 -77.7506 131° Southeast 475 547 33,000  Level Miami Center
08:49AM 23.9025 -77.6522 137° Southeast 475 547 33,000  Level Miami Center
08:50AM 23.8050 -77.5447 135° Southeast 480 552 33,000  Level Miami Center
08:51AM 23.7028 -77.4489 139° Southeast 480 552 33,000  Level Miami Center
08:52AM 23.6133 -77.3397 132° Southeast 480 552 33,000  Level Miami Center
08:53AM 23.5406 -77.2192 123° Southeast 475 547 33,000  Level Miami Center
08:54AM 23.4636 -77.0989 125° Southeast 480 552 33,000  Level Miami Center
08:55AM 23.3906 -76.9767 123° Southeast 480 552 33,000  Level Miami Center
08:56AM 23.3133 -76.8589 126° Southeast 480 552 33,000  Level Miami Center
08:57AM 23.2422 -76.7392 123° Southeast 480 552 33,000  Level Miami Center
08:58AM 23.1667 -76.6217 125° Southeast 480 552 33,000  Level Miami Center
08:59AM 23.0914 -76.5019 124° Southeast 480 552 33,000  Level Miami Center
09:00AM 23.0178 -76.3872 125° Southeast 474 545 33,000  Level Miami Center
09:01AM 22.9442 -76.2678 124° Southeast 474 545 33,000  Level Miami Center
09:02AM 22.8706 -76.1533 125° Southeast 474 545 33,000  Level Miami Center
09:03AM 22.7969 -76.0386 125° Southeast 474 545 33,000  Level Miami Center
09:04AM 22.7231 -75.9222 125° Southeast 474 545 33,000  Level Miami Center
09:05AM 22.6492 -75.8056 124° Southeast 474 545 33,000  Level Miami Center
09:06AM 22.5731 -75.6892 125° Southeast 474 545 33,000  Level Miami Center
09:07AM 22.4992 -75.5731 125° Southeast 474 545 33,000  Level Miami Center
09:08AM 22.4250 -75.4569 125° Southeast 474 545 33,000  Level Miami Center
09:09AM 22.3486 -75.3386 125° Southeast 474 545 33,000  Level Miami Center
09:10AM 22.2764 -75.2206 123° Southeast 474 545 33,000  Level Miami Center
09:11AM 22.2042 -75.1117 126° Southeast 469 540 33,000  Level Miami Center
09:12AM 22.1131 -75.0053 133° Southeast 469 540 33,000  Level Miami Center
09:13AM 22.0136 -74.9103 138° Southeast 469 540 33,000  Level Miami Center
09:14AM 21.9122 -74.8222 141° Southeast 474 545 33,000  Level Miami Center
09:15AM 21.8150 -74.7297 139° Southeast 474 545 33,000  Level Miami Center
09:16AM 21.7156 -74.6353 139° Southeast 474 545 33,000  Level Miami Center
09:17AM 21.6181 -74.5431 139° Southeast 474 545 33,000  Level Miami Center
09:18AM 21.5164 -74.4556 141° Southeast 469 540 33,000 -60 Level Miami Center
09:19AM 21.4189 -74.3639 139° Southeast 469 540 32,900  Descending Miami Center
09:20AM 21.3214 -74.2764 140° Southeast 469 540 33,000  Climbing Miami Center
09:21AM 21.2217 -74.1850 139° Southeast 469 540 33,000  Level Miami Center
09:22AM 21.1200 -74.0933 140° Southeast 469 540 33,000  Level Miami Center
09:23AM 21.0222 -74.0042 140° Southeast 464 534 33,000  Level Miami Center
09:24AM 20.9247 -73.9175 140° Southeast 464 534 33,000  Level Miami Center
09:25AM 20.8247 -73.8286 140° Southeast 464 534 33,000  Level Miami Center
09:26AM 20.7272 -73.7400 140° Southeast 464 534 33,000  Level Miami Center
09:27AM 20.6272 -73.6492 140° Southeast 464 534 33,000  Level Miami Center
09:28AM 20.5294 -73.5606 140° Southeast 464 534 33,000  Level Miami Center
09:29AM 20.4294 -73.4722 140° Southeast 464 534 33,000  Level Miami Center
09:30AM 20.3272 -73.3842 141° Southeast 464 534 33,000  Level Miami Center
09:31AM 20.2294 -73.2936 139° Southeast 464 534 33,000  Level Miami Center
09:32AM 20.1250 -73.2081 142° Southeast 469 540 33,000  Level Miami Center
09:34AM 20.0047 -73.1362 151° Southeast  Level FlightAware Approximate
09:41AM 19.2355 -72.7119 152° Southeast  Level FlightAware Approximate
09:42AM 19.1258 -72.6518 153° Southeast  Level FlightAware Approximate
09:43AM 19.0161 -72.5918 153° Southeast  Level FlightAware Approximate
09:44AM 18.9063 -72.5319 153° Southeast  Level FlightAware Approximate
09:45AM 18.7966 -72.4720 153° Southeast  Level FlightAware Approximate
09:46AM 18.6868 -72.4122 153° Southeast  Level FlightAware Approximate
09:47AM 18.5770 -72.3525 153° Southeast  Level FlightAware Approximate
09:48AM 18.4672 -72.2929 153° Southeast  Level FlightAware Approximate
09:49AM 18.3573 -72.2333 153° Southeast  Level FlightAware Approximate
09:50AM 18.2475 -72.1739 153° Southeast  Level FlightAware Approximate
09:51AM 18.1376 -72.1145 153° Southeast  Level FlightAware Approximate
09:52AM 18.0277 -72.0551 153° Southeast  Level FlightAware Approximate
09:53AM 17.9178 -71.9959 153° Southeast  Level FlightAware Approximate
09:54AM 17.8078 -71.9367 153° Southeast  Level FlightAware Approximate
09:55AM 17.6979 -71.8776 153° Southeast  Level FlightAware Approximate
09:56AM 17.5879 -71.8185 153° Southeast  Level FlightAware Approximate
09:57AM 17.4779 -71.7596 153° Southeast  Level FlightAware Approximate
09:58AM 17.3680 -71.7007 153° Southeast  Level FlightAware Approximate
09:59AM 17.2582 -71.6413 153° Southeast  Level FlightAware Approximate
10:00AM 17.1484 -71.5821 153° Southeast  Level FlightAware Approximate
10:01AM 17.0386 -71.5229 153° Southeast  Level FlightAware Approximate
10:02AM 16.9288 -71.4638 153° Southeast  Level FlightAware Approximate
10:03AM 16.8190 -71.4047 153° Southeast  Level FlightAware Approximate
10:04AM 16.7091 -71.3457 153° Southeast  Level FlightAware Approximate
10:05AM 16.5993 -71.2868 153° Southeast  Level FlightAware Approximate
10:06AM 16.4894 -71.2279 153° Southeast  Level FlightAware Approximate
10:07AM 16.3795 -71.1691 153° Southeast  Level FlightAware Approximate
10:08AM 16.2696 -71.1104 153° Southeast  Level FlightAware Approximate
10:09AM 16.1596 -71.0517 153° Southeast  Level FlightAware Approximate
10:10AM 16.0497 -70.9931 153° Southeast  Level FlightAware Approximate
10:11AM 15.9395 -70.9350 153° Southeast  Level FlightAware Approximate
10:12AM 15.8291 -70.8774 153° Southeast  Level FlightAware Approximate
10:13AM 15.7187 -70.8198 153° Southeast  Level FlightAware Approximate
10:14AM 15.6083 -70.7623 153° Southeast  Level FlightAware Approximate
10:15AM 15.4979 -70.7049 153° Southeast  Level FlightAware Approximate
10:15AM 15.4570 -70.4930 153° Southeast 443 510 33,000  Level FlightAware
10:15AM 15.3430 -70.4390 155° Southeast 440 506 33,000  Level FlightAware
10:16AM 15.2500 -70.3960 156° South 440 506 33,000  Level FlightAware
10:17AM 15.1740 -70.3590 155° Southeast 439 505 33,000  Level FlightAware
10:18AM 15.0900 -70.3200 156° South 438 504 33,000  Level FlightAware
10:19AM 14.9830 -70.2720 157° South 437 503 33,000  Level FlightAware
10:19AM 14.9070 -70.2380 157° South 437 503 33,000  Level FlightAware
10:20AM 14.8240 -70.2010 157° South 437 503 33,000  Level FlightAware
10:21AM 14.7500 -70.1670 156° South 437 503 33,000  Level FlightAware
10:22AM 14.6450 -70.1200 157° South 436 502 33,000  Level FlightAware
10:23AM 14.5630 -70.0830 156° South 436 502 33,000  Level FlightAware
10:24AM 14.4580 -70.0370 157° South 436 502 33,000  Level FlightAware
10:24AM 14.3750 -69.9990 156° South 437 503 33,000  Level FlightAware
10:25AM 14.2840 -69.9570 156° South 438 504 33,000  Level FlightAware
10:26AM 14.1890 -69.9140 156° South 438 504 33,000  Level FlightAware
10:26AM 14.1020 -69.8890 164° South 431 496 33,000  Level FlightAware
10:27AM 14.0220 -69.8910 181° South 432 497 33,000  Level FlightAware
10:28AM 13.9390 -69.8890 179° South 439 505 33,000  Level FlightAware
10:28AM 13.8690 -69.8750 169° South 440 506 33,000  Level FlightAware
10:29AM 13.8030 -69.8440 155° Southeast 436 502 33,000  Level FlightAware
10:30AM 13.7080 -69.7940 153° Southeast 443 510 33,000  Level FlightAware
10:31AM 13.6330 -69.7540 153° Southeast 444 511 33,000  Level FlightAware
10:32AM 13.5040 -69.6870 153° Southeast 445 512 33,000  Level FlightAware
10:33AM 13.3870 -69.6260 153° Southeast 446 513 33,000  Level FlightAware
10:33AM 13.3040 -69.5830 153° Southeast 447 514 33,000  Level FlightAware
10:34AM 13.2260 -69.5420 153° Southeast 448 516 33,000  Level FlightAware
10:35AM 13.1570 -69.5060 153° Southeast 448 516 33,000  Level FlightAware
10:35AM 13.0900 -69.4710 153° Southeast 449 517 33,000  Level FlightAware
10:36AM 13.0050 -69.4270 153° Southeast 449 517 33,000  Level FlightAware
10:37AM 12.9370 -69.3920 153° Southeast 450 518 33,000  Level FlightAware
10:38AM 12.8580 -69.3510 153° Southeast 450 518 33,000  Level FlightAware
10:38AM 12.7770 -69.3090 153° Southeast 451 519 33,000  Level FlightAware
10:39AM 12.6640 -69.2510 153° Southeast 451 519 33,000  Level FlightAware
10:40AM 12.5900 -69.2130 153° Southeast 452 520 33,000  Level FlightAware
10:41AM 12.5150 -69.1750 154° Southeast 452 520 33,000  Level FlightAware
10:41AM 12.4350 -69.1340 153° Southeast 452 520 33,000  Level FlightAware
10:42AM 12.3570 -69.0930 153° Southeast 453 521 33,000  Level FlightAware
10:43AM 12.3040 -69.0670 154° Southeast 453 521 33,000  Level FlightAware
10:43AM 12.2280 -69.0270 153° Southeast 451 519 33,000  Level FlightAware
10:44AM 12.1570 -68.9610 138° Southeast 450 518 33,000  Level FlightAware
10:45AM 12.0880 -68.8720 128° Southeast 449 517 33,000  Level FlightAware
10:45AM 12.0350 -68.8020 128° Southeast 448 516 33,000  Level FlightAware
10:46AM 11.9860 -68.7390 128° Southeast 447 514 33,000  Level FlightAware
10:47AM 11.9500 -68.6920 128° Southeast 447 514 33,000  Level FlightAware
10:47AM 11.8930 -68.6190 129° Southeast 444 511 33,000  Level FlightAware
10:48AM 11.8120 -68.5160 129° Southeast 444 511 33,000  Level FlightAware
10:49AM 11.7670 -68.4570 128° Southeast 444 511 33,000  Level FlightAware
10:50AM 11.7090 -68.3830 129° Southeast 443 510 33,000  Level FlightAware
10:50AM 11.6700 -68.3320 128° Southeast 444 511 33,000  Level FlightAware
10:51AM 11.6180 -68.2670 129° Southeast 443 510 33,000  Level FlightAware
10:52AM 11.5690 -68.2040 128° Southeast 441 507 33,000  Level FlightAware
10:52AM 11.4950 -68.1090 128° Southeast 441 507 33,000  Level FlightAware
10:53AM 11.4390 -68.0370 128° Southeast 441 507 33,000  Level FlightAware
10:54AM 11.3950 -67.9810 129° Southeast 441 507 33,000  Level FlightAware
10:54AM 11.3620 -67.9380 128° Southeast 441 507 33,000  Level FlightAware
10:55AM 11.3060 -67.8680 129° Southeast 440 506 33,000  Level FlightAware
10:56AM 11.2600 -67.8090 128° Southeast 441 507 33,000  Level FlightAware
10:56AM 11.1910 -67.7210 129° Southeast 441 507 33,000  Level FlightAware
10:57AM 11.1430 -67.6730 136° Southeast 439 505 33,000  Level FlightAware
10:58AM 11.0820 -67.6220 141° Southeast 439 505 33,000  Level FlightAware
10:59AM 11.0020 -67.5530 140° Southeast 439 505 33,000  Level FlightAware
10:59AM 10.9370 -67.4970 140° Southeast 440 506 33,000  Level FlightAware
11:00AM 10.8740 -67.4440 140° Southeast 440 506 33,000  Level FlightAware
11:00AM 10.8340 -67.4100 140° Southeast 440 506 33,000  Level FlightAware
11:01AM 10.7310 -67.3220 140° Southeast 440 506 33,000  Level FlightAware
11:02AM 10.6600 -67.2610 140° Southeast 441 507 33,000  Level FlightAware
11:03AM 10.6090 -67.2180 140° Southeast 428 493 33,000  Level FlightAware
11:04AM 10.5210 -67.1430 140° Southeast 442 509 33,000  Level FlightAware
11:04AM 10.4510 -67.0830 140° Southeast 444 511 33,000  Level FlightAware
11:05AM 10.3970 -67.0380 141° Southeast 443 510 33,000  Level FlightAware
11:06AM 10.3210 -66.9830 145° Southeast 436 502 33,000  Level FlightAware
11:06AM 10.2420 -66.9340 149° Southeast 437 503 33,000  Level FlightAware
11:07AM 10.1710 -66.8910 149° Southeast 438 504 33,000  Level FlightAware
11:08AM 10.1070 -66.8520 149° Southeast 439 505 33,000  Level FlightAware
11:08AM 10.0680 -66.8280 149° Southeast 439 505 33,000  Level FlightAware
11:09AM 9.9640 -66.7640 149° Southeast 437 503 33,000  Level FlightAware
11:10AM 9.8660 -66.7040 149° Southeast 437 503 33,000  Level FlightAware
11:11AM 9.8140 -66.6710 148° Southeast 437 503 33,000  Level FlightAware
11:12AM 9.7620 -66.6380 148° Southeast 437 503 33,000  Level FlightAware
11:12AM 9.6890 -66.5920 148° Southeast 437 503 33,000  Level FlightAware
11:13AM 9.6520 -66.5680 147° Southeast 437 503 33,000  Level FlightAware
11:14AM 9.5820 -66.5240 148° Southeast 437 503 33,000  Level FlightAware
11:14AM 9.5310 -66.4920 148° Southeast 437 503 33,000  Level FlightAware
11:15AM 9.4580 -66.4460 148° Southeast 437 503 33,000  Level FlightAware
11:16AM 9.3880 -66.4010 148° Southeast 437 503 33,000  Level FlightAware
11:17AM 9.3160 -66.3550 148° Southeast 437 503 33,000  Level FlightAware
11:17AM 9.2620 -66.3210 148° Southeast 437 503 33,000  Level FlightAware
11:18AM 9.2080 -66.2870 148° Southeast 437 503 33,000  Level FlightAware
11:19AM 9.1380 -66.2430 148° Southeast 437 503 33,000  Level FlightAware
11:19AM 9.0870 -66.2100 147° Southeast 437 503 33,000  Level FlightAware
11:22AM 8.8380 -66.0804 153° Southeast  Level FlightAware Approximate
11:23AM 8.7281 -66.0233 153° Southeast  Level FlightAware Approximate
11:24AM 8.6183 -65.9662 153° Southeast  Level FlightAware Approximate
11:25AM 8.5084 -65.9091 153° Southeast  Level FlightAware Approximate
11:26AM 8.3985 -65.8521 153° Southeast  Level FlightAware Approximate
11:27AM 8.2886 -65.7951 153° Southeast  Level FlightAware Approximate
11:28AM 8.1787 -65.7382 153° Southeast  Level FlightAware Approximate
11:29AM 8.0688 -65.6812 153° Southeast  Level FlightAware Approximate
11:30AM 7.9588 -65.6243 153° Southeast  Level FlightAware Approximate
11:31AM 7.8489 -65.5675 153° Southeast  Level FlightAware Approximate
11:32AM 7.7390 -65.5106 153° Southeast  Level FlightAware Approximate
11:33AM 7.6290 -65.4538 153° Southeast  Level FlightAware Approximate
11:34AM 7.5191 -65.3970 153° Southeast  Level FlightAware Approximate
11:35AM 7.4091 -65.3403 153° Southeast  Level FlightAware Approximate
11:36AM 7.2991 -65.2835 153° Southeast  Level FlightAware Approximate
11:37AM 7.1892 -65.2269 153° Southeast  Level FlightAware Approximate
11:38AM 7.0792 -65.1702 153° Southeast  Level FlightAware Approximate
11:39AM 6.9692 -65.1135 153° Southeast  Level FlightAware Approximate
11:40AM 6.8592 -65.0569 153° Southeast  Level FlightAware Approximate
11:41AM 6.7492 -65.0004 153° Southeast  Level FlightAware Approximate
11:42AM 6.6392 -64.9438 153° Southeast  Level FlightAware Approximate
11:43AM 6.5292 -64.8873 153° Southeast  Level FlightAware Approximate
11:44AM 6.4191 -64.8307 153° Southeast  Level FlightAware Approximate
11:45AM 6.3091 -64.7743 153° Southeast  Level FlightAware Approximate
11:46AM 6.1991 -64.7178 153° Southeast  Level FlightAware Approximate
11:47AM 6.0890 -64.6614 153° Southeast  Level FlightAware Approximate
11:48AM 5.9790 -64.6049 153° Southeast  Level FlightAware Approximate
11:49AM 5.8689 -64.5486 153° Southeast  Level FlightAware Approximate
11:50AM 5.7589 -64.4922 153° Southeast  Level FlightAware Approximate
11:51AM 5.6488 -64.4358 153° Southeast  Level FlightAware Approximate
11:52AM 5.5388 -64.3795 153° Southeast  Level FlightAware Approximate
11:53AM 5.4287 -64.3232 153° Southeast  Level FlightAware Approximate
11:54AM 5.3186 -64.2669 153° Southeast  Level FlightAware Approximate
11:55AM 5.2085 -64.2107 153° Southeast  Level FlightAware Approximate
11:56AM 5.0984 -64.1544 153° Southeast  Level FlightAware Approximate
11:57AM 4.9883 -64.0982 153° Southeast  Level FlightAware Approximate
11:58AM 4.8782 -64.0420 153° Southeast  Level FlightAware Approximate
11:59AM 4.7681 -63.9858 153° Southeast  Level FlightAware Approximate
12:00PM 4.6580 -63.9296 153° Southeast  Level FlightAware Approximate
12:01PM 4.5479 -63.8735 153° Southeast  Level FlightAware Approximate
12:02PM 4.4378 -63.8173 153° Southeast  Level FlightAware Approximate
12:03PM 4.3277 -63.7612 153° Southeast  Level FlightAware Approximate
12:04PM 4.2175 -63.7051 153° Southeast  Level FlightAware Approximate
12:05PM 4.1074 -63.6490 153° Southeast  Level FlightAware Approximate
12:06PM 3.9973 -63.5929 153° Southeast  Level FlightAware Approximate
12:07PM 3.8872 -63.5369 153° Southeast  Level FlightAware Approximate
12:08PM 3.7770 -63.4809 153° Southeast  Level FlightAware Approximate
12:09PM 3.6669 -63.4248 153° Southeast  Level FlightAware Approximate
12:10PM 3.5567 -63.3688 153° Southeast  Level FlightAware Approximate
12:11PM 3.4466 -63.3128 153° Southeast  Level FlightAware Approximate
12:12PM 3.3364 -63.2568 153° Southeast  Level FlightAware Approximate
12:13PM 3.2263 -63.2009 153° Southeast  Level FlightAware Approximate
12:14PM 3.1161 -63.1449 153° Southeast  Level FlightAware Approximate
12:15PM 3.0059 -63.0889 153° Southeast  Level FlightAware Approximate
12:16PM 2.8958 -63.0330 153° Southeast  Level FlightAware Approximate
12:17PM 2.7856 -62.9771 153° Southeast  Level FlightAware Approximate
12:18PM 2.6754 -62.9212 153° Southeast  Level FlightAware Approximate
12:19PM 2.5653 -62.8652 153° Southeast  Level FlightAware Approximate
12:20PM 2.4551 -62.8093 153° Southeast  Level FlightAware Approximate
12:21PM 2.3449 -62.7534 153° Southeast  Level FlightAware Approximate
12:22PM 2.2347 -62.6976 153° Southeast  Level FlightAware Approximate
12:23PM 2.1245 -62.6417 153° Southeast  Level FlightAware Approximate
12:24PM 2.0143 -62.5858 153° Southeast  Level FlightAware Approximate
12:25PM 1.9042 -62.5300 153° Southeast  Level FlightAware Approximate
12:26PM 1.7940 -62.4741 153° Southeast  Level FlightAware Approximate
12:27PM 1.6838 -62.4183 153° Southeast  Level FlightAware Approximate
12:28PM 1.5736 -62.3624 153° Southeast  Level FlightAware Approximate
12:29PM 1.4634 -62.3066 153° Southeast  Level FlightAware Approximate
12:30PM 1.3532 -62.2508 153° Southeast  Level FlightAware Approximate
12:31PM 1.2430 -62.1950 153° Southeast  Level FlightAware Approximate
12:32PM 1.1328 -62.1392 153° Southeast  Level FlightAware Approximate
12:33PM 1.0226 -62.0834 153° Southeast  Level FlightAware Approximate
12:34PM 0.9124 -62.0275 153° Southeast  Level FlightAware Approximate
12:35PM 0.8022 -61.9717 153° Southeast  Level FlightAware Approximate
12:36PM 0.6920 -61.9160 153° Southeast  Level FlightAware Approximate
12:37PM 0.5818 -61.8601 153° Southeast  Level FlightAware Approximate
12:38PM 0.4716 -61.8044 153° Southeast  Level FlightAware Approximate
12:39PM 0.3614 -61.7486 153° Southeast  Level FlightAware Approximate
12:40PM 0.2512 -61.6928 153° Southeast  Level FlightAware Approximate
12:41PM 0.1410 -61.6370 153° Southeast  Level FlightAware Approximate
12:42PM 0.0308 -61.5812 153° Southeast  Level FlightAware Approximate
12:43PM -0.0794 -61.5254 153° Southeast  Level FlightAware Approximate
12:44PM -0.1896 -61.4696 153° Southeast  Level FlightAware Approximate
12:45PM -0.2998 -61.4138 153° Southeast  Level FlightAware Approximate
12:46PM -0.4100 -61.3580 153° Southeast  Level FlightAware Approximate
12:47PM -0.5202 -61.3022 153° Southeast  Level FlightAware Approximate
12:48PM -0.6304 -61.2464 153° Southeast  Level FlightAware Approximate
12:49PM -0.7406 -61.1906 153° Southeast  Level FlightAware Approximate
12:50PM -0.8508 -61.1348 153° Southeast  Level FlightAware Approximate
12:50PM -0.8590 -60.7450 153° Southeast 469 540 35,000  Level FlightAware
12:51PM -0.9610 -61.0790 153° Southeast  Level FlightAware Approximate
12:51PM -0.9260 -60.7270 165° South 469 540 35,000  Level FlightAware
12:52PM -1.0660 -60.6920 166° South 467 537 35,000 -720 Level FlightAware
12:53PM -1.1580 -60.6680 165° South 451 519 33,900 -1,800 Descending FlightAware
12:53PM -1.2400 -60.6470 166° South 442 509 32,500 -1,980 Descending FlightAware
12:54PM -1.3160 -60.6270 165° South 435 501 31,300 -1,800 Descending FlightAware
12:55PM -1.3790 -60.6100 165° South 429 494 30,200 -1,740 Descending FlightAware
12:55PM -1.4440 -60.5940 166° South 422 486 29,100 -2,100 Descending FlightAware
12:56PM -1.5490 -60.5660 165° South 411 473 27,300 -2,160 Descending FlightAware
12:57PM -1.6310 -60.5450 166° South 403 464 25,900 -1,860 Descending FlightAware
12:57PM -1.7030 -60.5260 165° South 395 455 24,700 -1,860 Descending FlightAware
12:58PM -1.7650 -60.5100 166° South 388 447 23,600 -1,560 Descending FlightAware
12:59PM -1.8270 -60.4940 166° South 382 440 22,600 -1,500 Descending FlightAware
12:59PM -1.8960 -60.4770 166° South 374 430 21,400 -1,980 Descending FlightAware
01:00PM -1.9690 -60.4570 165° South 372 428 20,100 -2,160 Descending FlightAware
01:01PM -2.0490 -60.4350 165° South 367 422 18,600 -1,860 Descending FlightAware
01:01PM -2.1150 -60.4190 166° South 362 417 17,500 -1,680 Descending FlightAware
01:02PM -2.1730 -60.4040 166° South 357 411 16,500 -1,500 Descending FlightAware
01:03PM -2.2240 -60.3900 165° South 352 405 15,600 -1,500 Descending FlightAware
01:03PM -2.2840 -60.3750 166° South 346 398 14,500 -1,560 Descending FlightAware
01:04PM -2.3430 -60.3590 165° South 340 391 13,500 -1,860 Descending FlightAware
01:05PM -2.4350 -60.3350 165° South 330 380 11,900 -1,860 Descending FlightAware
01:05PM -2.4930 -60.3190 165° South 319 367 10,900 -1,620 Descending FlightAware
01:06PM -2.5550 -60.3040 166° South 297 342 9,700 -1,680 Descending FlightAware
01:07PM -2.5930 -60.2950 167° South 283 326 8,900 -1,560 Descending FlightAware
01:07PM -2.6290 -60.2870 167° South 280 322 8,200 -1,440 Descending FlightAware
01:08PM -2.6650 -60.2800 169° South 276 318 7,600 -1,200 Descending FlightAware
01:08PM -2.6920 -60.2730 165° South 268 308 7,200 -1,080 Descending FlightAware
01:08PM -2.7190 -60.2670 167° South 261 300 6,700 -1,320 Descending FlightAware
01:09PM -2.7490 -60.2600 167° South 258 297 5,900 -1,380 Descending FlightAware
01:09PM -2.7760 -60.2540 167° South 249 287 5,400 -1,320 Descending FlightAware
01:10PM -2.7900 -60.2510 168° South 246 283 5,100 -1,380 Descending FlightAware
01:10PM -2.8210 -60.2430 166° South 236 272 4,500 -1,440 Descending FlightAware
01:11PM -2.8570 -60.2340 166° South 222 255 3,700 -1,620 Descending FlightAware
01:11PM -2.8940 -60.2270 169° South 212 244 2,900 -1,200 Descending FlightAware
01:12PM -2.9200 -60.2220 169° South 192 221 2,600 -840 Descending FlightAware
01:12PM -2.9340 -60.2190 168° South 187 215 2,300 -900 Descending FlightAware
01:12PM -2.9560 -60.2130 165° South 182 209 2,000 -240 Descending FlightAware
01:13PM -2.9800 -60.2060 164° South 189 217 2,100 60 Climbing FlightAware
01:13PM -3.0020 -60.1970 158° South 190 219 2,100  Level FlightAware
01:14PM -3.0200 -60.1880 153° Southeast 191 220 2,100  Level FlightAware
01:14PM -3.0310 -60.1780 138° Southeast 188 216 2,100  Level FlightAware
01:14PM -3.0350 -60.1720 124° Southeast 189 217 2,100  Level FlightAware
01:14PM -3.0390 -60.1580 106° East 184 212 2,100 -480 Level FlightAware
01:15PM -3.0380 -60.1290 88° East 154 177 1,600 -420 Descending FlightAware
01:16PM -3.0380 -60.1130 90° East 154 177 1,600 -840 Level FlightAware
01:16PM -3.0390 -60.0810 92° East 150 173 700 -720 Descending FlightAware
01:17PM -3.0380 -60.0570 88° East 150 173 600 -180 Descending FlightAware
01:20PM -3.0386 -60.0497 153° Southeast  Level Estimated
01:21PM -3.0386 -60.0497 153° Southeast  Level Estimated
01:22PM -3.0386 -60.0497 153° Southeast  Level Estimated
01:23PM -3.0386 -60.0497 153° Southeast  Level Estimated
01:24PM -3.0386 -60.0497 153° Southeast  Level Estimated
01:25PM -3.0386 -60.0497 153° Southeast  Level Estimated
01:26PM -3.0386 -60.0497 153° Southeast  Level Estimated